TimeCEST,TemperatureF,Dew PointF,Humidity,Sea Level PressureIn,VisibilityMPH,Wind Direction,Wind SpeedMPH,Gust SpeedMPH,PrecipitationIn,Events,Conditions,WindDirDegrees,DateUTC
12:00 AM,42.8,42.8,100,30.21,0.4,NW,4.6,-,N/A,Fog,Fog,310,2012-10-23 22:00:00
12:30 AM,42.8,41.0,93,30.21,0.4,NW,5.8,-,N/A,Fog,Fog,310,2012-10-23 22:30:00
1:00 AM,42.8,41.0,93,30.18,0.4,WNW,5.8,-,N/A,Fog,Fog,300,2012-10-23 23:00:00
1:30 AM,42.8,41.0,93,30.18,0.2,Variable,2.3,-,N/A,Fog,Fog,0,2012-10-23 23:30:00
2:00 AM,42.8,41.0,93,30.18,0.2,Variable,3.5,-,N/A,Fog,Patches of Fog,0,2012-10-24 00:00:00
2:30 AM,41.0,41.0,100,30.18,0.2,WNW,4.6,-,N/A,Fog,Fog,300,2012-10-24 00:30:00
3:00 AM,41.0,41.0,100,30.18,0.1,Variable,3.5,-,N/A,Fog,Fog,0,2012-10-24 01:00:00
3:30 AM,41.0,41.0,100,30.18,0.1,NW,4.6,-,N/A,Fog,Fog,320,2012-10-24 01:30:00
4:00 AM,41.0,41.0,100,30.18,0.1,WNW,4.6,-,N/A,Fog,Fog,300,2012-10-24 02:00:00
4:30 AM,41.0,41.0,100,30.15,0.1,NW,4.6,-,N/A,Fog,Fog,310,2012-10-24 02:30:00
5:00 AM,41.0,39.2,93,30.15,0.2,Variable,3.5,-,N/A,Fog,Fog,0,2012-10-24 03:00:00
5:30 AM,41.0,39.2,93,30.15,0.2,Variable,3.5,-,N/A,Fog,Fog,0,2012-10-24 03:30:00
6:00 AM,39.2,39.2,100,30.15,0.2,Variable,3.5,-,N/A,Fog,Fog,0,2012-10-24 04:00:00
6:30 AM,39.2,39.2,100,30.15,0.3,Variable,3.5,-,N/A,Fog,Fog,0,2012-10-24 04:30:00
7:00 AM,39.2,39.2,100,30.15,0.1,Variable,2.3,-,N/A,Fog,Fog,0,2012-10-24 05:00:00
7:30 AM,39.2,39.2,100,30.15,0.1,WNW,6.9,-,N/A,Fog,Fog,290,2012-10-24 05:30:00
8:00 AM,41.0,41.0,100,30.15,0.1,WNW,4.6,-,N/A,Fog,Fog,290,2012-10-24 06:00:00
8:30 AM,41.0,41.0,100,30.15,0.1,WNW,4.6,-,N/A,Fog,Fog,290,2012-10-24 06:30:00
9:00 AM,42.8,42.8,100,30.15,0.1,Variable,3.5,-,N/A,Fog,Fog,0,2012-10-24 07:00:00
9:30 AM,42.8,42.8,100,30.15,0.1,Variable,3.5,-,N/A,Fog,Fog,0,2012-10-24 07:30:00
10:00 AM,44.6,44.6,100,30.15,0.1,Variable,2.3,-,N/A,Fog,Fog,0,2012-10-24 08:00:00
10:30 AM,46.4,46.4,100,30.18,0.3,Variable,2.3,-,N/A,Fog,Fog,0,2012-10-24 08:30:00
11:00 AM,46.4,46.4,100,30.18,0.9,Variable,3.5,-,N/A,Fog,Patches of Fog,0,2012-10-24 09:00:00
11:30 AM,48.2,48.2,100,30.15,1.4,WSW,4.6,-,N/A,,Mostly Cloudy,250,2012-10-24 09:30:00
12:00 PM,48.2,48.2,100,30.15,-9999.0,SW,4.6,-,N/A,,Mostly Cloudy,230,2012-10-24 10:00:00
12:30 PM,50.0,48.2,94,30.15,3.1,WSW,4.6,-,N/A,,Mostly Cloudy,240,2012-10-24 10:30:00
1:00 PM,51.8,46.4,82,30.15,4.3,WSW,4.6,-,N/A,,Mostly Cloudy,250,2012-10-24 11:00:00
1:30 PM,51.8,44.6,76,30.12,5.0,SW,5.8,-,N/A,,Mostly Cloudy,220,2012-10-24 11:30:00
2:00 PM,53.6,46.4,77,30.12,5.0,South,4.6,-,N/A,,Mostly Cloudy,190,2012-10-24 12:00:00
2:30 PM,53.6,46.4,77,30.12,5.0,SSW,4.6,-,N/A,,Mostly Cloudy,210,2012-10-24 12:30:00
3:00 PM,53.6,46.4,77,30.12,5.0,Variable,3.5,-,N/A,,Mostly Cloudy,0,2012-10-24 13:00:00
3:30 PM,53.6,46.4,77,30.09,5.0,WSW,5.8,-,N/A,,Mostly Cloudy,250,2012-10-24 13:30:00
4:00 PM,53.6,46.4,77,30.09,3.7,WSW,5.8,-,N/A,,Mostly Cloudy,240,2012-10-24 14:00:00
4:30 PM,53.6,46.4,77,30.09,3.1,SW,6.9,-,N/A,,Mostly Cloudy,220,2012-10-24 14:30:00
5:00 PM,51.8,46.4,82,30.09,-9999.0,SW,8.1,-,N/A,,Mostly Cloudy,230,2012-10-24 15:00:00
5:30 PM,51.8,46.4,82,30.09,-9999.0,SSW,5.8,-,N/A,,Mostly Cloudy,210,2012-10-24 15:30:00
6:00 PM,51.8,48.2,88,30.09,-9999.0,SW,6.9,-,N/A,,Mostly Cloudy,230,2012-10-24 16:00:00
6:30 PM,51.8,48.2,88,30.09,-9999.0,WSW,5.8,-,N/A,,Overcast,250,2012-10-24 16:30:00
7:00 PM,51.8,48.2,88,30.09,2.2,West,6.9,-,N/A,,Overcast,260,2012-10-24 17:00:00
7:30 PM,50.0,48.2,94,30.09,2.2,WSW,6.9,-,N/A,,Overcast,240,2012-10-24 17:30:00
8:00 PM,50.0,46.4,87,30.09,3.1,WSW,6.9,-,N/A,,Overcast,250,2012-10-24 18:00:00
8:30 PM,50.0,46.4,87,30.09,3.1,SW,6.9,-,N/A,,Overcast,230,2012-10-24 18:30:00
9:00 PM,50.0,46.4,87,30.09,3.7,WSW,6.9,-,N/A,,Overcast,250,2012-10-24 19:00:00
9:30 PM,50.0,46.4,87,30.09,3.7,WSW,8.1,-,N/A,,Overcast,250,2012-10-24 19:30:00
10:00 PM,50.0,46.4,87,30.09,3.7,West,8.1,-,N/A,,Overcast,260,2012-10-24 20:00:00
10:30 PM,50.0,46.4,87,30.09,3.7,West,8.1,-,N/A,,Overcast,270,2012-10-24 20:30:00
11:00 PM,50.0,44.6,82,30.09,3.1,West,9.2,-,N/A,,Overcast,280,2012-10-24 21:00:00
11:30 PM,48.2,44.6,87,30.06,3.1,West,9.2,-,N/A,,Overcast,280,2012-10-24 21:30:00